sensor_id;sensor_type;location;lat;lon;timestamp;temperature;humidity
36416;DHT22;22447;44.530;18.620;2023-03-23T00:01:50;5.80;99.90
36416;DHT22;22447;44.530;18.620;2023-03-23T00:04:16;5.80;99.90
36416;DHT22;22447;44.530;18.620;2023-03-23T00:06:42;5.90;99.90
36416;DHT22;22447;44.530;18.620;2023-03-23T00:09:12;5.90;99.90
36416;DHT22;22447;44.530;18.620;2023-03-23T00:11:38;5.70;99.90
36416;DHT22;22447;44.530;18.620;2023-03-23T00:14:07;5.60;99.90
36416;DHT22;22447;44.530;18.620;2023-03-23T00:16:39;5.40;99.90
36416;DHT22;22447;44.530;18.620;2023-03-23T00:19:12;5.40;99.90
36416;DHT22;22447;44.530;18.620;2023-03-23T00:21:42;5.40;99.90
36416;DHT22;22447;44.530;18.620;2023-03-23T00:24:17;5.50;99.90
36416;DHT22;22447;44.530;18.620;2023-03-23T00:26:45;5.50;99.90
36416;DHT22;22447;44.530;18.620;2023-03-23T00:29:20;5.40;99.90
36416;DHT22;22447;44.530;18.620;2023-03-23T00:31:51;5.40;99.90
36416;DHT22;22447;44.530;18.620;2023-03-23T00:34:22;5.50;99.90
36416;DHT22;22447;44.530;18.620;2023-03-23T00:36:54;5.40;99.90
36416;DHT22;22447;44.530;18.620;2023-03-23T00:39:26;5.40;99.90
36416;DHT22;22447;44.530;18.620;2023-03-23T00:41:54;5.40;99.90
36416;DHT22;22447;44.530;18.620;2023-03-23T00:44:31;5.30;99.90
36416;DHT22;22447;44.530;18.620;2023-03-23T00:46:57;5.30;99.90
36416;DHT22;22447;44.530;18.620;2023-03-23T00:49:25;5.20;99.90
36416;DHT22;22447;44.530;18.620;2023-03-23T00:51:57;5.20;99.90
36416;DHT22;22447;44.530;18.620;2023-03-23T00:54:24;5.20;99.90
36416;DHT22;22447;44.530;18.620;2023-03-23T00:56:51;5.30;99.90
36416;DHT22;22447;44.530;18.620;2023-03-23T00:59:18;5.30;99.90
36416;DHT22;22447;44.530;18.620;2023-03-23T01:01:44;5.30;99.90
36416;DHT22;22447;44.530;18.620;2023-03-23T01:04:10;5.20;99.90
36416;DHT22;22447;44.530;18.620;2023-03-23T01:06:40;5.20;99.90
36416;DHT22;22447;44.530;18.620;2023-03-23T01:09:11;5.10;99.90
36416;DHT22;22447;44.530;18.620;2023-03-23T01:11:41;5.20;99.90
36416;DHT22;22447;44.530;18.620;2023-03-23T01:14:08;5.10;99.90
36416;DHT22;22447;44.530;18.620;2023-03-23T01:16:34;5.00;99.90
36416;DHT22;22447;44.530;18.620;2023-03-23T01:19:00;4.90;99.90
36416;DHT22;22447;44.530;18.620;2023-03-23T01:21:26;4.90;99.90
36416;DHT22;22447;44.530;18.620;2023-03-23T01:23:52;4.90;99.90
36416;DHT22;22447;44.530;18.620;2023-03-23T01:26:24;4.80;99.90
36416;DHT22;22447;44.530;18.620;2023-03-23T01:28:51;4.80;99.90
36416;DHT22;22447;44.530;18.620;2023-03-23T01:31:21;4.90;99.90
36416;DHT22;22447;44.530;18.620;2023-03-23T01:33:47;4.90;99.90
36416;DHT22;22447;44.530;18.620;2023-03-23T01:36:19;5.00;99.90
36416;DHT22;22447;44.530;18.620;2023-03-23T01:38:47;4.90;99.90
36416;DHT22;22447;44.530;18.620;2023-03-23T01:41:15;4.80;99.90
36416;DHT22;22447;44.530;18.620;2023-03-23T01:46:52;4.70;99.90
36416;DHT22;22447;44.530;18.620;2023-03-23T01:49:33;4.60;99.90
36416;DHT22;22447;44.530;18.620;2023-03-23T01:52:03;4.70;99.90
36416;DHT22;22447;44.530;18.620;2023-03-23T01:54:31;4.80;99.90
36416;DHT22;22447;44.530;18.620;2023-03-23T01:57:03;4.70;99.90
36416;DHT22;22447;44.530;18.620;2023-03-23T01:59:30;4.60;99.90
36416;DHT22;22447;44.530;18.620;2023-03-23T02:02:16;4.70;99.90
36416;DHT22;22447;44.530;18.620;2023-03-23T02:04:43;4.80;99.90
36416;DHT22;22447;44.530;18.620;2023-03-23T02:07:12;4.70;99.90
36416;DHT22;22447;44.530;18.620;2023-03-23T02:09:39;4.60;99.90
36416;DHT22;22447;44.530;18.620;2023-03-23T02:12:06;4.50;99.90
36416;DHT22;22447;44.530;18.620;2023-03-23T02:14:33;4.40;99.90
36416;DHT22;22447;44.530;18.620;2023-03-23T02:17:23;4.40;99.90
36416;DHT22;22447;44.530;18.620;2023-03-23T02:25:56;4.40;99.90
36416;DHT22;22447;44.530;18.620;2023-03-23T02:34:28;4.50;99.90
36416;DHT22;22447;44.530;18.620;2023-03-23T02:37:07;4.60;99.90
36416;DHT22;22447;44.530;18.620;2023-03-23T02:39:38;4.70;99.90
36416;DHT22;22447;44.530;18.620;2023-03-23T02:42:09;4.70;99.90
36416;DHT22;22447;44.530;18.620;2023-03-23T02:44:38;4.70;99.90
36416;DHT22;22447;44.530;18.620;2023-03-23T02:47:09;4.60;99.90
36416;DHT22;22447;44.530;18.620;2023-03-23T02:49:38;4.50;99.90
36416;DHT22;22447;44.530;18.620;2023-03-23T02:52:12;4.40;99.90
36416;DHT22;22447;44.530;18.620;2023-03-23T02:54:43;4.40;99.90
36416;DHT22;22447;44.530;18.620;2023-03-23T02:57:10;4.30;99.90
36416;DHT22;22447;44.530;18.620;2023-03-23T02:59:40;4.30;99.90
36416;DHT22;22447;44.530;18.620;2023-03-23T03:02:15;4.20;99.90
36416;DHT22;22447;44.530;18.620;2023-03-23T03:04:48;4.20;99.90
36416;DHT22;22447;44.530;18.620;2023-03-23T03:10:10;4.40;99.90
36416;DHT22;22447;44.530;18.620;2023-03-23T03:15:24;4.40;99.90
36416;DHT22;22447;44.530;18.620;2023-03-23T03:18:05;4.30;99.90
36416;DHT22;22447;44.530;18.620;2023-03-23T03:20:38;4.30;99.90
36416;DHT22;22447;44.530;18.620;2023-03-23T03:23:07;4.30;99.90
36416;DHT22;22447;44.530;18.620;2023-03-23T03:25:36;4.10;99.90
36416;DHT22;22447;44.530;18.620;2023-03-23T03:28:03;4.10;99.90
36416;DHT22;22447;44.530;18.620;2023-03-23T03:30:42;4.10;99.90
36416;DHT22;22447;44.530;18.620;2023-03-23T03:33:10;4.00;99.90
36416;DHT22;22447;44.530;18.620;2023-03-23T03:35:40;4.00;99.90
36416;DHT22;22447;44.530;18.620;2023-03-23T03:38:09;4.10;99.90
36416;DHT22;22447;44.530;18.620;2023-03-23T03:40:35;4.00;99.90
36416;DHT22;22447;44.530;18.620;2023-03-23T03:43:02;4.00;99.90
36416;DHT22;22447;44.530;18.620;2023-03-23T03:45:28;3.90;99.90
36416;DHT22;22447;44.530;18.620;2023-03-23T03:47:55;4.00;99.90
36416;DHT22;22447;44.530;18.620;2023-03-23T03:50:21;3.90;99.90
36416;DHT22;22447;44.530;18.620;2023-03-23T03:52:47;4.00;99.90
36416;DHT22;22447;44.530;18.620;2023-03-23T03:55:13;4.00;99.90
36416;DHT22;22447;44.530;18.620;2023-03-23T03:57:43;4.00;99.90
36416;DHT22;22447;44.530;18.620;2023-03-23T04:00:32;3.90;99.90
36416;DHT22;22447;44.530;18.620;2023-03-23T04:02:58;3.90;99.90
36416;DHT22;22447;44.530;18.620;2023-03-23T04:05:44;3.80;99.90
36416;DHT22;22447;44.530;18.620;2023-03-23T04:08:11;3.80;99.90
36416;DHT22;22447;44.530;18.620;2023-03-23T04:10:37;3.70;99.90
36416;DHT22;22447;44.530;18.620;2023-03-23T04:13:03;3.80;99.90
36416;DHT22;22447;44.530;18.620;2023-03-23T04:15:52;3.70;99.90
36416;DHT22;22447;44.530;18.620;2023-03-23T04:18:19;3.80;99.90
36416;DHT22;22447;44.530;18.620;2023-03-23T04:20:48;3.90;99.90
36416;DHT22;22447;44.530;18.620;2023-03-23T04:23:18;3.80;99.90
36416;DHT22;22447;44.530;18.620;2023-03-23T04:25:47;3.90;99.90
36416;DHT22;22447;44.530;18.620;2023-03-23T04:28:14;3.80;99.90
36416;DHT22;22447;44.530;18.620;2023-03-23T04:30:54;3.80;99.90
36416;DHT22;22447;44.530;18.620;2023-03-23T04:33:25;3.80;99.90
36416;DHT22;22447;44.530;18.620;2023-03-23T04:35:54;3.80;99.90
36416;DHT22;22447;44.530;18.620;2023-03-23T04:38:38;3.70;99.90
36416;DHT22;22447;44.530;18.620;2023-03-23T04:41:14;3.70;99.90
36416;DHT22;22447;44.530;18.620;2023-03-23T04:44:04;3.60;99.90
36416;DHT22;22447;44.530;18.620;2023-03-23T04:46:37;3.60;99.90
36416;DHT22;22447;44.530;18.620;2023-03-23T04:49:08;3.70;99.90
36416;DHT22;22447;44.530;18.620;2023-03-23T04:51:37;3.70;99.90
36416;DHT22;22447;44.530;18.620;2023-03-23T04:54:25;3.70;99.90
36416;DHT22;22447;44.530;18.620;2023-03-23T04:56:55;3.60;99.90
36416;DHT22;22447;44.530;18.620;2023-03-23T04:59:21;3.60;99.90
36416;DHT22;22447;44.530;18.620;2023-03-23T05:02:07;3.60;99.90
36416;DHT22;22447;44.530;18.620;2023-03-23T05:04:34;3.70;99.90
36416;DHT22;22447;44.530;18.620;2023-03-23T05:07:14;3.70;99.90
36416;DHT22;22447;44.530;18.620;2023-03-23T05:09:47;3.90;99.90
36416;DHT22;22447;44.530;18.620;2023-03-23T05:12:14;4.00;99.90
36416;DHT22;22447;44.530;18.620;2023-03-23T05:15:05;4.10;99.90
36416;DHT22;22447;44.530;18.620;2023-03-23T05:17:33;4.40;99.90
36416;DHT22;22447;44.530;18.620;2023-03-23T05:20:05;4.50;99.90
36416;DHT22;22447;44.530;18.620;2023-03-23T05:22:44;4.70;99.90
36416;DHT22;22447;44.530;18.620;2023-03-23T05:25:12;5.00;99.90
36416;DHT22;22447;44.530;18.620;2023-03-23T05:27:46;5.10;99.90
36416;DHT22;22447;44.530;18.620;2023-03-23T05:30:30;5.20;99.90
36416;DHT22;22447;44.530;18.620;2023-03-23T05:32:57;5.30;99.90
36416;DHT22;22447;44.530;18.620;2023-03-23T05:35:49;5.40;99.90
36416;DHT22;22447;44.530;18.620;2023-03-23T05:38:19;5.50;99.90
36416;DHT22;22447;44.530;18.620;2023-03-23T05:40:46;5.70;99.90
36416;DHT22;22447;44.530;18.620;2023-03-23T05:43:18;5.70;99.90
36416;DHT22;22447;44.530;18.620;2023-03-23T05:45:55;5.80;99.90
36416;DHT22;22447;44.530;18.620;2023-03-23T05:48:22;6.10;99.90
36416;DHT22;22447;44.530;18.620;2023-03-23T05:50:48;6.40;99.90
36416;DHT22;22447;44.530;18.620;2023-03-23T05:53:14;6.70;99.90
36416;DHT22;22447;44.530;18.620;2023-03-23T05:55:41;6.90;99.90
36416;DHT22;22447;44.530;18.620;2023-03-23T05:58:29;7.30;99.90
36416;DHT22;22447;44.530;18.620;2023-03-23T06:00:56;7.40;99.90
36416;DHT22;22447;44.530;18.620;2023-03-23T06:03:26;7.50;99.90
36416;DHT22;22447;44.530;18.620;2023-03-23T06:06:12;7.70;99.90
36416;DHT22;22447;44.530;18.620;2023-03-23T06:08:48;8.00;99.90
36416;DHT22;22447;44.530;18.620;2023-03-23T06:11:18;8.20;99.90
36416;DHT22;22447;44.530;18.620;2023-03-23T06:13:58;8.40;99.90
36416;DHT22;22447;44.530;18.620;2023-03-23T06:16:24;8.60;99.90
36416;DHT22;22447;44.530;18.620;2023-03-23T06:18:56;8.80;99.90
36416;DHT22;22447;44.530;18.620;2023-03-23T06:21:30;9.10;99.90
36416;DHT22;22447;44.530;18.620;2023-03-23T06:24:19;9.60;99.90
36416;DHT22;22447;44.530;18.620;2023-03-23T06:26:45;10.10;99.90
36416;DHT22;22447;44.530;18.620;2023-03-23T06:29:17;10.40;99.90
36416;DHT22;22447;44.530;18.620;2023-03-23T06:31:52;10.60;99.90
36416;DHT22;22447;44.530;18.620;2023-03-23T06:34:20;10.90;99.90
36416;DHT22;22447;44.530;18.620;2023-03-23T06:36:46;11.20;99.90
36416;DHT22;22447;44.530;18.620;2023-03-23T06:39:17;11.40;99.90
36416;DHT22;22447;44.530;18.620;2023-03-23T06:41:52;11.60;99.90
36416;DHT22;22447;44.530;18.620;2023-03-23T06:44:19;11.60;99.90
36416;DHT22;22447;44.530;18.620;2023-03-23T06:46:45;11.80;99.90
36416;DHT22;22447;44.530;18.620;2023-03-23T06:49:22;11.70;99.90
36416;DHT22;22447;44.530;18.620;2023-03-23T06:51:55;12.00;99.90
36416;DHT22;22447;44.530;18.620;2023-03-23T06:54:24;12.50;99.90
36416;DHT22;22447;44.530;18.620;2023-03-23T06:56:51;13.30;99.90
36416;DHT22;22447;44.530;18.620;2023-03-23T06:59:18;13.70;99.90
36416;DHT22;22447;44.530;18.620;2023-03-23T07:01:44;13.60;99.90
36416;DHT22;22447;44.530;18.620;2023-03-23T07:04:10;13.80;99.90
36416;DHT22;22447;44.530;18.620;2023-03-23T07:06:51;14.20;99.90
36416;DHT22;22447;44.530;18.620;2023-03-23T07:09:18;14.50;99.90
36416;DHT22;22447;44.530;18.620;2023-03-23T07:11:44;14.60;99.90
36416;DHT22;22447;44.530;18.620;2023-03-23T07:14:20;14.70;99.90
36416;DHT22;22447;44.530;18.620;2023-03-23T07:16:48;15.20;99.90
36416;DHT22;22447;44.530;18.620;2023-03-23T07:19:14;15.30;99.90
36416;DHT22;22447;44.530;18.620;2023-03-23T07:21:42;15.60;99.90
36416;DHT22;22447;44.530;18.620;2023-03-23T07:24:14;16.00;99.90
36416;DHT22;22447;44.530;18.620;2023-03-23T07:26:56;16.40;99.90
36416;DHT22;22447;44.530;18.620;2023-03-23T07:29:22;16.50;99.90
36416;DHT22;22447;44.530;18.620;2023-03-23T07:31:57;16.80;99.90
36416;DHT22;22447;44.530;18.620;2023-03-23T07:34:23;16.90;99.90
36416;DHT22;22447;44.530;18.620;2023-03-23T07:37:02;16.80;99.90
36416;DHT22;22447;44.530;18.620;2023-03-23T07:39:31;17.40;99.90
36416;DHT22;22447;44.530;18.620;2023-03-23T07:41:59;17.50;99.90
36416;DHT22;22447;44.530;18.620;2023-03-23T07:44:40;17.80;99.90
36416;DHT22;22447;44.530;18.620;2023-03-23T07:47:08;18.10;99.90
36416;DHT22;22447;44.530;18.620;2023-03-23T07:49:35;18.20;99.90
36416;DHT22;22447;44.530;18.620;2023-03-23T07:52:30;18.20;99.90
36416;DHT22;22447;44.530;18.620;2023-03-23T07:54:58;18.50;99.90
36416;DHT22;22447;44.530;18.620;2023-03-23T07:57:48;18.60;99.90
36416;DHT22;22447;44.530;18.620;2023-03-23T08:00:17;18.90;99.90
36416;DHT22;22447;44.530;18.620;2023-03-23T08:02:52;18.90;99.90
36416;DHT22;22447;44.530;18.620;2023-03-23T08:05:38;19.00;99.90
36416;DHT22;22447;44.530;18.620;2023-03-23T08:08:25;19.40;99.90
36416;DHT22;22447;44.530;18.620;2023-03-23T08:11:10;19.60;99.90
36416;DHT22;22447;44.530;18.620;2023-03-23T08:14:06;20.10;99.90
36416;DHT22;22447;44.530;18.620;2023-03-23T08:16:44;20.10;99.90
36416;DHT22;22447;44.530;18.620;2023-03-23T08:19:20;20.00;99.90
36416;DHT22;22447;44.530;18.620;2023-03-23T08:22:18;20.10;99.90
36416;DHT22;22447;44.530;18.620;2023-03-23T08:25:21;20.60;99.90
36416;DHT22;22447;44.530;18.620;2023-03-23T08:28:16;21.10;99.90
36416;DHT22;22447;44.530;18.620;2023-03-23T08:31:08;21.50;99.90
36416;DHT22;22447;44.530;18.620;2023-03-23T08:33:51;21.50;99.90
36416;DHT22;22447;44.530;18.620;2023-03-23T08:36:29;21.80;99.90
36416;DHT22;22447;44.530;18.620;2023-03-23T08:39:13;21.90;99.90
36416;DHT22;22447;44.530;18.620;2023-03-23T08:42:18;21.70;99.90
36416;DHT22;22447;44.530;18.620;2023-03-23T08:45:06;22.10;99.90
36416;DHT22;22447;44.530;18.620;2023-03-23T08:47:58;22.30;99.90
36416;DHT22;22447;44.530;18.620;2023-03-23T08:50:28;22.40;99.90
36416;DHT22;22447;44.530;18.620;2023-03-23T08:53:14;22.70;99.90
36416;DHT22;22447;44.530;18.620;2023-03-23T08:55:48;22.60;99.90
36416;DHT22;22447;44.530;18.620;2023-03-23T08:58:34;22.60;99.90
36416;DHT22;22447;44.530;18.620;2023-03-23T09:01:09;23.00;99.90
36416;DHT22;22447;44.530;18.620;2023-03-23T09:03:54;23.00;99.90
36416;DHT22;22447;44.530;18.620;2023-03-23T09:06:44;23.40;99.90
36416;DHT22;22447;44.530;18.620;2023-03-23T09:09:13;23.50;99.90
36416;DHT22;22447;44.530;18.620;2023-03-23T09:11:40;23.50;99.90
36416;DHT22;22447;44.530;18.620;2023-03-23T09:14:07;24.00;99.90
36416;DHT22;22447;44.530;18.620;2023-03-23T09:16:34;24.40;99.90
36416;DHT22;22447;44.530;18.620;2023-03-23T09:19:01;24.80;99.90
36416;DHT22;22447;44.530;18.620;2023-03-23T09:21:28;24.80;99.90
36416;DHT22;22447;44.530;18.620;2023-03-23T09:23:55;24.80;99.90
36416;DHT22;22447;44.530;18.620;2023-03-23T09:26:25;24.90;99.90
36416;DHT22;22447;44.530;18.620;2023-03-23T09:28:52;25.00;99.90
36416;DHT22;22447;44.530;18.620;2023-03-23T09:31:18;24.80;99.90
36416;DHT22;22447;44.530;18.620;2023-03-23T09:33:48;24.80;99.90
36416;DHT22;22447;44.530;18.620;2023-03-23T09:36:18;25.00;99.90
36416;DHT22;22447;44.530;18.620;2023-03-23T09:38:49;25.20;99.90
36416;DHT22;22447;44.530;18.620;2023-03-23T09:47:18;25.80;99.90
36416;DHT22;22447;44.530;18.620;2023-03-23T09:50:24;25.10;99.90
36416;DHT22;22447;44.530;18.620;2023-03-23T09:52:58;25.40;99.90
36416;DHT22;22447;44.530;18.620;2023-03-23T09:55:24;25.60;99.90
36416;DHT22;22447;44.530;18.620;2023-03-23T09:58:26;26.00;99.90
36416;DHT22;22447;44.530;18.620;2023-03-23T10:01:30;26.20;99.90
36416;DHT22;22447;44.530;18.620;2023-03-23T10:06:46;26.70;99.90
36416;DHT22;22447;44.530;18.620;2023-03-23T10:09:16;26.70;99.90
36416;DHT22;22447;44.530;18.620;2023-03-23T10:17:59;26.70;99.90
36416;DHT22;22447;44.530;18.620;2023-03-23T10:26:18;26.80;99.90
36416;DHT22;22447;44.530;18.620;2023-03-23T10:28:54;26.90;99.90
36416;DHT22;22447;44.530;18.620;2023-03-23T10:31:41;26.70;99.90
36416;DHT22;22447;44.530;18.620;2023-03-23T10:34:13;27.20;99.90
36416;DHT22;22447;44.530;18.620;2023-03-23T10:39:21;26.60;99.90
36416;DHT22;22447;44.530;18.620;2023-03-23T10:41:48;26.70;99.90
36416;DHT22;22447;44.530;18.620;2023-03-23T10:44:20;26.80;99.90
36416;DHT22;22447;44.530;18.620;2023-03-23T10:47:00;26.70;99.90
36416;DHT22;22447;44.530;18.620;2023-03-23T10:49:51;26.80;99.90
36416;DHT22;22447;44.530;18.620;2023-03-23T10:55:13;25.90;99.90
36416;DHT22;22447;44.530;18.620;2023-03-23T10:57:43;26.50;99.90
36416;DHT22;22447;44.530;18.620;2023-03-23T11:00:26;24.80;99.90
36416;DHT22;22447;44.530;18.620;2023-03-23T11:03:21;25.30;99.90
36416;DHT22;22447;44.530;18.620;2023-03-23T11:05:52;26.30;99.90
36416;DHT22;22447;44.530;18.620;2023-03-23T11:08:28;26.10;99.90
36416;DHT22;22447;44.530;18.620;2023-03-23T11:10:59;25.70;99.90
36416;DHT22;22447;44.530;18.620;2023-03-23T11:13:33;25.30;99.90
36416;DHT22;22447;44.530;18.620;2023-03-23T11:16:00;25.30;99.90
36416;DHT22;22447;44.530;18.620;2023-03-23T11:18:52;25.70;99.90
36416;DHT22;22447;44.530;18.620;2023-03-23T11:21:20;26.20;99.90
36416;DHT22;22447;44.530;18.620;2023-03-23T11:23:53;26.00;99.90
36416;DHT22;22447;44.530;18.620;2023-03-23T11:26:28;26.20;99.90
36416;DHT22;22447;44.530;18.620;2023-03-23T11:28:57;26.50;99.90
36416;DHT22;22447;44.530;18.620;2023-03-23T11:31:32;26.50;99.90
36416;DHT22;22447;44.530;18.620;2023-03-23T11:34:02;26.90;99.90
36416;DHT22;22447;44.530;18.620;2023-03-23T11:36:41;27.50;99.90
36416;DHT22;22447;44.530;18.620;2023-03-23T11:39:24;27.80;99.90
36416;DHT22;22447;44.530;18.620;2023-03-23T11:41:50;27.80;99.90
36416;DHT22;22447;44.530;18.620;2023-03-23T11:44:16;27.90;99.90
36416;DHT22;22447;44.530;18.620;2023-03-23T11:46:50;27.80;99.90
36416;DHT22;22447;44.530;18.620;2023-03-23T11:55:37;28.00;99.90
36416;DHT22;22447;44.530;18.620;2023-03-23T11:58:13;28.00;99.90
36416;DHT22;22447;44.530;18.620;2023-03-23T12:03:56;28.60;99.90
36416;DHT22;22447;44.530;18.620;2023-03-23T12:06:43;28.40;99.90
36416;DHT22;22447;44.530;18.620;2023-03-23T12:20:21;27.10;99.90
36416;DHT22;22447;44.530;18.620;2023-03-23T12:23:15;27.70;99.90
36416;DHT22;22447;44.530;18.620;2023-03-23T12:26:25;28.10;99.90
36416;DHT22;22447;44.530;18.620;2023-03-23T12:29:08;28.30;99.90
36416;DHT22;22447;44.530;18.620;2023-03-23T12:37:56;28.30;99.90
36416;DHT22;22447;44.530;18.620;2023-03-23T12:49:46;27.90;99.90
36416;DHT22;22447;44.530;18.620;2023-03-23T12:52:35;27.60;99.90
36416;DHT22;22447;44.530;18.620;2023-03-23T12:55:19;27.80;99.90
36416;DHT22;22447;44.530;18.620;2023-03-23T12:57:52;27.50;99.90
36416;DHT22;22447;44.530;18.620;2023-03-23T13:03:20;26.80;99.90
36416;DHT22;22447;44.530;18.620;2023-03-23T13:06:06;27.00;99.90
36416;DHT22;22447;44.530;18.620;2023-03-23T13:08:39;27.10;99.90
36416;DHT22;22447;44.530;18.620;2023-03-23T13:11:37;27.20;99.90
36416;DHT22;22447;44.530;18.620;2023-03-23T13:19:51;26.70;99.90
36416;DHT22;22447;44.530;18.620;2023-03-23T13:22:36;26.70;99.90
36416;DHT22;22447;44.530;18.620;2023-03-23T13:25:08;26.40;99.90
36416;DHT22;22447;44.530;18.620;2023-03-23T13:27:40;26.90;99.90
36416;DHT22;22447;44.530;18.620;2023-03-23T13:30:20;27.10;99.90
36416;DHT22;22447;44.530;18.620;2023-03-23T13:32:51;27.10;99.90
36416;DHT22;22447;44.530;18.620;2023-03-23T13:35:24;27.30;99.90
36416;DHT22;22447;44.530;18.620;2023-03-23T13:37:51;27.30;99.90
36416;DHT22;22447;44.530;18.620;2023-03-23T13:40:29;27.50;99.90
36416;DHT22;22447;44.530;18.620;2023-03-23T13:43:00;27.60;99.90
36416;DHT22;22447;44.530;18.620;2023-03-23T13:48:18;27.40;99.90
36416;DHT22;22447;44.530;18.620;2023-03-23T13:50:54;26.60;99.90
36416;DHT22;22447;44.530;18.620;2023-03-23T13:53:44;26.60;99.90
36416;DHT22;22447;44.530;18.620;2023-03-23T13:56:32;26.40;99.90
36416;DHT22;22447;44.530;18.620;2023-03-23T13:59:05;26.30;99.90
36416;DHT22;22447;44.530;18.620;2023-03-23T14:01:33;26.40;99.90
36416;DHT22;22447;44.530;18.620;2023-03-23T14:04:01;26.20;99.90
36416;DHT22;22447;44.530;18.620;2023-03-23T14:06:33;26.60;99.90
36416;DHT22;22447;44.530;18.620;2023-03-23T14:09:54;26.90;99.90
36416;DHT22;22447;44.530;18.620;2023-03-23T14:12:26;26.50;99.90
36416;DHT22;22447;44.530;18.620;2023-03-23T14:14:56;26.80;99.90
36416;DHT22;22447;44.530;18.620;2023-03-23T14:17:27;27.00;99.90
36416;DHT22;22447;44.530;18.620;2023-03-23T14:19:54;26.70;99.90
36416;DHT22;22447;44.530;18.620;2023-03-23T14:22:31;26.10;99.90
36416;DHT22;22447;44.530;18.620;2023-03-23T14:25:14;25.80;99.90
36416;DHT22;22447;44.530;18.620;2023-03-23T14:27:40;25.60;99.90
36416;DHT22;22447;44.530;18.620;2023-03-23T14:30:15;25.50;99.90
36416;DHT22;22447;44.530;18.620;2023-03-23T14:32:41;25.50;99.90
36416;DHT22;22447;44.530;18.620;2023-03-23T14:35:07;25.30;99.90
36416;DHT22;22447;44.530;18.620;2023-03-23T14:37:34;25.10;99.90
36416;DHT22;22447;44.530;18.620;2023-03-23T14:40:03;24.90;99.90
36416;DHT22;22447;44.530;18.620;2023-03-23T14:42:33;24.80;99.90
36416;DHT22;22447;44.530;18.620;2023-03-23T14:45:00;24.80;99.90
36416;DHT22;22447;44.530;18.620;2023-03-23T14:47:30;24.90;99.90
36416;DHT22;22447;44.530;18.620;2023-03-23T14:49:58;24.80;99.90
36416;DHT22;22447;44.530;18.620;2023-03-23T14:52:25;24.30;99.90
36416;DHT22;22447;44.530;18.620;2023-03-23T14:54:50;24.30;99.90
36416;DHT22;22447;44.530;18.620;2023-03-23T14:57:25;24.20;99.90
36416;DHT22;22447;44.530;18.620;2023-03-23T14:59:52;24.10;99.90
36416;DHT22;22447;44.530;18.620;2023-03-23T15:02:22;24.10;99.90
36416;DHT22;22447;44.530;18.620;2023-03-23T15:04:51;23.90;99.90
36416;DHT22;22447;44.530;18.620;2023-03-23T15:07:18;24.10;99.90
36416;DHT22;22447;44.530;18.620;2023-03-23T15:09:45;24.20;99.90
36416;DHT22;22447;44.530;18.620;2023-03-23T15:12:46;24.20;99.90
36416;DHT22;22447;44.530;18.620;2023-03-23T15:15:05;24.20;99.90
36416;DHT22;22447;44.530;18.620;2023-03-23T15:17:36;24.20;99.90
36416;DHT22;22447;44.530;18.620;2023-03-23T15:20:19;24.10;99.90
36416;DHT22;22447;44.530;18.620;2023-03-23T15:22:46;24.10;99.90
36416;DHT22;22447;44.530;18.620;2023-03-23T15:25:23;23.90;99.90
36416;DHT22;22447;44.530;18.620;2023-03-23T15:27:54;23.80;99.90
36416;DHT22;22447;44.530;18.620;2023-03-23T15:32:51;23.60;99.90
36416;DHT22;22447;44.530;18.620;2023-03-23T15:35:21;23.50;99.90
36416;DHT22;22447;44.530;18.620;2023-03-23T15:37:48;23.50;99.90
36416;DHT22;22447;44.530;18.620;2023-03-23T15:40:22;23.30;99.90
36416;DHT22;22447;44.530;18.620;2023-03-23T15:42:49;23.10;99.90
36416;DHT22;22447;44.530;18.620;2023-03-23T15:45:20;23.20;99.90
36416;DHT22;22447;44.530;18.620;2023-03-23T15:47:48;23.20;99.90
36416;DHT22;22447;44.530;18.620;2023-03-23T15:50:16;23.20;99.90
36416;DHT22;22447;44.530;18.620;2023-03-23T15:52:42;23.10;99.90
36416;DHT22;22447;44.530;18.620;2023-03-23T15:57:47;23.00;99.90
36416;DHT22;22447;44.530;18.620;2023-03-23T16:00:14;22.90;99.90
36416;DHT22;22447;44.530;18.620;2023-03-23T16:02:40;22.80;99.90
36416;DHT22;22447;44.530;18.620;2023-03-23T16:05:09;22.70;99.90
36416;DHT22;22447;44.530;18.620;2023-03-23T16:07:36;22.60;99.90
36416;DHT22;22447;44.530;18.620;2023-03-23T16:10:03;22.40;99.90
36416;DHT22;22447;44.530;18.620;2023-03-23T16:12:29;22.30;99.90
36416;DHT22;22447;44.530;18.620;2023-03-23T16:14:54;22.10;99.90
36416;DHT22;22447;44.530;18.620;2023-03-23T16:17:20;21.90;99.90
36416;DHT22;22447;44.530;18.620;2023-03-23T16:19:46;21.70;99.90
36416;DHT22;22447;44.530;18.620;2023-03-23T16:22:12;21.40;99.90
36416;DHT22;22447;44.530;18.620;2023-03-23T16:24:38;21.20;99.90
36416;DHT22;22447;44.530;18.620;2023-03-23T16:27:04;21.00;99.90
36416;DHT22;22447;44.530;18.620;2023-03-23T16:29:30;21.00;99.90
36416;DHT22;22447;44.530;18.620;2023-03-23T16:31:56;20.80;99.90
36416;DHT22;22447;44.530;18.620;2023-03-23T16:34:22;20.60;99.90
36416;DHT22;22447;44.530;18.620;2023-03-23T16:36:48;20.50;99.90
36416;DHT22;22447;44.530;18.620;2023-03-23T16:39:13;20.30;99.90
36416;DHT22;22447;44.530;18.620;2023-03-23T16:41:43;20.20;99.90
36416;DHT22;22447;44.530;18.620;2023-03-23T16:44:09;20.00;99.90
36416;DHT22;22447;44.530;18.620;2023-03-23T16:46:35;19.80;99.90
36416;DHT22;22447;44.530;18.620;2023-03-23T16:49:01;19.70;99.90
36416;DHT22;22447;44.530;18.620;2023-03-23T16:51:26;19.60;99.90
36416;DHT22;22447;44.530;18.620;2023-03-23T16:53:52;19.40;99.90
36416;DHT22;22447;44.530;18.620;2023-03-23T16:56:18;19.20;99.90
36416;DHT22;22447;44.530;18.620;2023-03-23T16:58:44;19.10;99.90
36416;DHT22;22447;44.530;18.620;2023-03-23T17:01:10;19.00;99.90
36416;DHT22;22447;44.530;18.620;2023-03-23T17:03:36;18.90;99.90
36416;DHT22;22447;44.530;18.620;2023-03-23T17:06:02;18.80;99.90
36416;DHT22;22447;44.530;18.620;2023-03-23T17:08:28;18.70;99.90
36416;DHT22;22447;44.530;18.620;2023-03-23T17:10:54;18.60;99.90
36416;DHT22;22447;44.530;18.620;2023-03-23T17:13:20;18.50;99.90
36416;DHT22;22447;44.530;18.620;2023-03-23T17:15:46;18.40;99.90
36416;DHT22;22447;44.530;18.620;2023-03-23T17:18:12;18.30;99.90
36416;DHT22;22447;44.530;18.620;2023-03-23T17:20:38;18.10;99.90
36416;DHT22;22447;44.530;18.620;2023-03-23T17:23:04;18.00;99.90
36416;DHT22;22447;44.530;18.620;2023-03-23T17:25:29;17.90;99.90
36416;DHT22;22447;44.530;18.620;2023-03-23T17:27:56;17.80;99.90
36416;DHT22;22447;44.530;18.620;2023-03-23T17:30:22;17.70;99.90
36416;DHT22;22447;44.530;18.620;2023-03-23T17:32:48;17.60;99.90
36416;DHT22;22447;44.530;18.620;2023-03-23T17:35:13;17.60;99.90
36416;DHT22;22447;44.530;18.620;2023-03-23T17:37:40;17.50;99.90